Terminal Aerodrome Forecast
Issued by NWS Portland, OR

Home | Current Version | Previous Version | Text Only | Print | Product List | Glossary On
Versions: 1 2 3 4 5 6 7 8 9 10 11 12 13
000
FTUS46 KPQR 290520
TAFEUG
TAF
KEUG 290520Z 2906/3006 22004KT P6SM BKN035
     FM291700 20005KT P6SM -RA OVC035
     FM292200 29012KT P6SM -SHRA OVC040
     FM300200 31009KT P6SM BKN040=

USA.gov is the U.S. government's official web portal to all federal, state and local government web resources and services.